createdAt,value
2023-08-03T00:04:15.786Z,99000.63
2023-08-03T00:09:07.556Z,98984.53
2023-08-03T00:13:59.436Z,98981.84
2023-08-03T00:18:51.193Z,98973.16
2023-08-03T00:23:42.947Z,98981.84
2023-08-03T00:28:34.633Z,98982.88
2023-08-03T00:33:26.568Z,98968.00
2023-08-03T00:38:18.395Z,98980.19
2023-08-03T00:43:12.373Z,98975.03
2023-08-03T00:48:04.215Z,98972.16
2023-08-03T00:52:56.014Z,98980.38
2023-08-03T00:57:47.854Z,98971.31
2023-08-03T01:02:39.775Z,98979.34
2023-08-03T01:07:31.611Z,98975.84
2023-08-03T01:12:23.494Z,98973.97
2023-08-03T01:17:15.406Z,98967.81
2023-08-03T01:22:10.151Z,98957.09
2023-08-03T01:27:02.775Z,98956.09
2023-08-03T01:31:57.702Z,98960.44
2023-08-03T01:36:49.503Z,98956.09
2023-08-03T01:41:42.935Z,98961.44
2023-08-03T01:46:35.071Z,98963.09
2023-08-03T01:51:26.877Z,98953.41
2023-08-03T01:56:19.783Z,98967.63
2023-08-03T02:01:11.596Z,98959.78
2023-08-03T02:06:03.510Z,98964.94
2023-08-03T02:10:56.280Z,98964.13
2023-08-03T02:15:48.067Z,98944.81
2023-08-03T02:20:39.793Z,98949.88
2023-08-03T02:25:31.607Z,98953.41
2023-08-03T02:30:23.333Z,98936.47
2023-08-03T02:35:16.099Z,98928.44
2023-08-03T02:40:10.337Z,98939.34
2023-08-03T02:45:02.284Z,98947.19
2023-08-03T02:49:55.477Z,98946.38
2023-08-03T02:54:47.491Z,98953.41
2023-08-03T02:59:41.328Z,98944.91
2023-08-03T03:04:34.836Z,98932.16
2023-08-03T03:09:27.743Z,98939.34
2023-08-03T03:14:20.823Z,98916.66
2023-08-03T03:19:12.643Z,98909.44
2023-08-03T03:24:06.516Z,98929.47
2023-08-03T03:28:58.405Z,98915.03
2023-08-03T03:33:55.888Z,98917.91
2023-08-03T03:38:48.271Z,98912.56
2023-08-03T03:43:40.282Z,98920.59
2023-08-03T03:48:32.174Z,98926.97
2023-08-03T03:53:28.539Z,98949.41
2023-08-03T03:58:20.668Z,98961.78
2023-08-03T04:03:12.762Z,98958.28
2023-08-03T04:08:05.774Z,98959.31
2023-08-03T04:12:58.412Z,98954.97
2023-08-03T04:17:51.237Z,98943.31
2023-08-03T04:22:51.216Z,98939.78
2023-08-03T04:27:44.909Z,98938.78
2023-08-03T04:32:40.574Z,98945.81
2023-08-03T04:37:33.289Z,98940.25
2023-08-03T04:42:26.497Z,98950.81
2023-08-03T04:47:18.375Z,98945.47
2023-08-03T04:52:10.679Z,98966.69
2023-08-03T04:57:02.491Z,98959.22
2023-08-03T05:01:59.016Z,98971.41
2023-08-03T05:06:52.362Z,98980.28
2023-08-03T05:11:45.892Z,98985.63
2023-08-03T05:16:39.099Z,98978.25
2023-08-03T05:21:30.986Z,98986.28
2023-08-03T05:26:22.655Z,98979.06
2023-08-03T05:31:14.541Z,98978.25
2023-08-03T05:36:06.363Z,98978.97
2023-08-03T05:40:58.087Z,98986.28
2023-08-03T05:45:50.575Z,98996.50
2023-08-03T05:50:52.977Z,98987.13
2023-08-03T05:55:49.335Z,98993.66
2023-08-03T06:00:50.869Z,98993.28
2023-08-03T06:05:44.350Z,98993.28
2023-08-03T06:10:36.259Z,98991.47
2023-08-03T06:15:28.028Z,98979.88
2023-08-03T06:20:23.437Z,98973.53
2023-08-03T06:25:16.902Z,98984.25
2023-08-03T06:30:13.987Z,98978.88
2023-08-03T06:35:06.165Z,98999.13
2023-08-03T06:39:58.125Z,99000.16
2023-08-03T06:44:50.794Z,98991.25
2023-08-03T06:49:42.565Z,98999.97
2023-08-03T06:54:34.251Z,98986.75
2023-08-03T06:59:25.939Z,98993.78
2023-08-03T07:04:17.817Z,99004.31
2023-08-03T07:09:09.545Z,99003.47
2023-08-03T07:14:01.204Z,99014.00
2023-08-03T07:18:53.005Z,98999.75
2023-08-03T07:23:44.793Z,98990.72
2023-08-03T07:28:36.443Z,98990.91
2023-08-03T07:33:28.146Z,98986.38
2023-08-03T07:38:19.858Z,98993.22
2023-08-03T07:43:11.664Z,99009.31
2023-08-03T07:48:03.625Z,99001.28
2023-08-03T07:52:55.480Z,99004.78
2023-08-03T07:57:47.224Z,99001.28
2023-08-03T08:02:38.969Z,99004.78
2023-08-03T08:07:30.758Z,98985.56
2023-08-03T08:12:22.435Z,98985.19
2023-08-03T08:17:14.615Z,98997.75
2023-08-03T08:22:15.766Z,99008.25
2023-08-03T08:27:09.517Z,98994.88
2023-08-03T08:32:01.842Z,99003.75
2023-08-03T08:36:56.688Z,98998.41
2023-08-03T08:41:48.463Z,98989.50
2023-08-03T08:46:42.802Z,98991.56
2023-08-03T09:01:27.232Z,99000.63
2023-08-03T09:06:24.327Z,98980.19
2023-08-03T09:11:17.065Z,98991.25
2023-08-03T09:16:23.751Z,99011.31
2023-08-03T09:26:12.850Z,99013.00
2023-08-03T09:31:05.825Z,99012.81
2023-08-03T09:36:04.183Z,99010.31
2023-08-03T09:40:56.086Z,99014.16
2023-08-03T09:45:48.044Z,99004.03
2023-08-03T09:50:47.640Z,98990.56
2023-08-03T09:55:47.224Z,98998.28
2023-08-03T10:00:40.232Z,99014.19
2023-08-03T10:05:35.106Z,99006.69
2023-08-03T10:10:28.314Z,98991.19
2023-08-03T10:15:20.380Z,99014.25
2023-08-03T10:20:13.156Z,99018.22
2023-08-03T10:25:20.667Z,99009.84
2023-08-03T10:30:12.477Z,99009.66
2023-08-03T10:35:41.513Z,99008.19
2023-08-03T10:40:33.312Z,99018.59
2023-08-03T10:45:27.698Z,99015.94
2023-08-03T10:50:19.532Z,99011.22
2023-08-03T10:55:22.935Z,99016.56
2023-08-03T11:00:14.974Z,99023.75
2023-08-03T11:05:09.484Z,99021.44
2023-08-03T11:10:03.442Z,99021.28
2023-08-03T11:14:57.177Z,99033.81
2023-08-03T11:19:49.076Z,99025.13
2023-08-03T11:24:41.267Z,99023.28
2023-08-03T11:29:36.989Z,99026.63
2023-08-03T11:34:28.827Z,99014.59
2023-08-03T11:39:21.259Z,98996.47
2023-08-03T11:44:13.015Z,99004.56
2023-08-03T11:49:05.124Z,98992.53
2023-08-03T11:53:56.859Z,98992.53
2023-08-03T11:58:48.590Z,98997.22
2023-08-03T12:03:40.657Z,98996.59
2023-08-03T12:08:45.122Z,99015.78
2023-08-03T12:13:39.149Z,98997.59
2023-08-03T12:18:31.400Z,98998.59
2023-08-03T12:23:23.334Z,98991.25
2023-08-03T12:28:15.502Z,99002.94
2023-08-03T12:33:08.692Z,99005.97
2023-08-03T12:38:00.528Z,99016.47
2023-08-03T12:42:52.328Z,99019.34
2023-08-03T12:47:51.884Z,99000.00
2023-08-03T12:52:45.036Z,98997.94
2023-08-03T12:57:36.748Z,99001.63
2023-08-03T13:02:31.657Z,98985.38
2023-08-03T13:07:23.549Z,98986.75
2023-08-03T13:12:16.009Z,98985.75
2023-08-03T13:17:08.243Z,98995.59
2023-08-03T13:22:00.257Z,98987.56
2023-08-03T13:26:51.960Z,98977.78
2023-08-03T13:31:44.673Z,98979.97
2023-08-03T13:36:36.545Z,98980.84
2023-08-03T13:41:28.331Z,98976.81
2023-08-03T13:46:20.375Z,98977.34
2023-08-03T13:51:12.250Z,98968.34
2023-08-03T13:56:04.068Z,98973.72
2023-08-03T14:00:55.989Z,98990.09
2023-08-03T14:25:43.736Z,98992.09
2023-08-03T14:30:35.641Z,99002.31
2023-08-03T14:40:22.137Z,99002.31
2023-08-03T14:45:14.871Z,98969.94
2023-08-03T14:55:02.249Z,99002.50
2023-08-03T14:59:54.303Z,98982.97
2023-08-03T15:04:47.345Z,98974.75
2023-08-03T15:09:39.499Z,98987.13
2023-08-03T15:14:31.502Z,98969.78
2023-08-03T15:19:24.176Z,98967.94
2023-08-03T15:24:17.801Z,98954.91
2023-08-03T15:29:23.126Z,98968.25
2023-08-03T15:34:18.219Z,98967.56
2023-08-03T15:39:11.169Z,98971.94
2023-08-03T15:44:06.226Z,98966.25
2023-08-03T15:53:59.171Z,98963.31
2023-08-03T15:58:54.297Z,98956.84
2023-08-03T16:03:46.197Z,98950.19
2023-08-03T16:08:38.026Z,98960.19
2023-08-03T16:13:30.799Z,98955.22
2023-08-03T16:18:22.567Z,98952.69
2023-08-03T16:23:14.364Z,98946.88
2023-08-03T16:28:06.170Z,98949.72
2023-08-03T16:32:58.025Z,98931.34
2023-08-03T16:37:49.861Z,98925.00
2023-08-03T16:42:41.677Z,98920.66
2023-08-03T16:47:33.476Z,98926.34
2023-08-03T16:52:25.468Z,98915.19
2023-08-03T16:57:20.130Z,98916.03
2023-08-03T17:02:11.916Z,98914.34
2023-08-03T17:07:03.911Z,98900.13
2023-08-03T17:11:55.794Z,98899.31
2023-08-03T17:16:47.779Z,98902.81
2023-08-03T17:21:39.802Z,98913.69
2023-08-03T17:26:31.642Z,98906.41
2023-08-03T17:31:23.362Z,98904.75
2023-08-03T17:36:15.228Z,98899.41
2023-08-03T17:41:07.088Z,98891.56
2023-08-03T17:45:59.885Z,98887.56
2023-08-03T17:50:52.129Z,98899.59
2023-08-03T17:55:43.863Z,98889.22
2023-08-03T18:00:35.739Z,98888.03
2023-08-03T18:05:28.212Z,98882.69
2023-08-03T18:10:19.998Z,98897.72
2023-08-03T18:15:13.602Z,98891.72
2023-08-03T18:20:06.277Z,98895.34
2023-08-03T18:24:58.115Z,98882.78
2023-08-03T18:29:50.914Z,98906.50
2023-08-03T18:34:42.795Z,98911.00
2023-08-03T18:39:34.618Z,98911.19
2023-08-03T18:44:26.400Z,98920.91
2023-08-03T18:49:18.249Z,98925.38
2023-08-03T18:54:10.044Z,98929.72
2023-08-03T18:59:01.801Z,98935.09
2023-08-03T19:03:55.212Z,98938.94
2023-08-03T19:08:47.163Z,98942.09
2023-08-03T19:13:39.554Z,98948.47
2023-08-03T19:18:32.064Z,98947.66
2023-08-03T19:23:26.231Z,98946.44
2023-08-03T19:28:18.108Z,98967.31
2023-08-03T19:33:11.745Z,98953.78
2023-08-03T19:38:04.112Z,98957.94
2023-08-03T19:42:56.038Z,98962.41
2023-08-03T19:47:56.403Z,98962.41
2023-08-03T20:07:38.180Z,98964.72
2023-08-03T20:17:26.668Z,98960.44
2023-08-03T20:22:22.113Z,98956.09
2023-08-03T20:27:13.913Z,98978.75
2023-08-03T20:32:05.979Z,98975.06
2023-08-03T20:36:58.031Z,98983.09
2023-08-03T20:51:39.257Z,98979.56
2023-08-03T20:56:30.985Z,98974.06
2023-08-03T21:01:22.941Z,98972.03
2023-08-03T21:06:14.793Z,98973.88
2023-08-03T21:11:15.561Z,98976.38
2023-08-03T21:16:12.146Z,98983.56
2023-08-03T21:21:04.331Z,98987.25
2023-08-03T21:25:56.541Z,98990.41
2023-08-03T21:30:48.373Z,98994.09
2023-08-03T21:35:40.125Z,99006.47
2023-08-03T21:40:32.017Z,98998.81
2023-08-03T21:45:23.879Z,98999.28
2023-08-03T21:50:16.564Z,98998.44
2023-08-03T21:55:09.909Z,99002.78
2023-08-03T22:00:01.826Z,99008.97
2023-08-03T22:04:53.635Z,99026.03
2023-08-03T22:09:45.491Z,99018.84
2023-08-03T22:14:37.329Z,99016.00
2023-08-03T22:19:29.128Z,99008.78
2023-08-03T22:24:21.542Z,98999.94
2023-08-03T22:29:13.921Z,99014.97
2023-08-03T22:34:05.670Z,99018.69
2023-08-03T22:38:57.447Z,99020.50
2023-08-03T22:43:49.299Z,99030.19
2023-08-03T22:48:41.050Z,99032.88
2023-08-03T22:53:32.753Z,99020.69
2023-08-03T22:58:26.866Z,99023.84
2023-08-03T23:03:18.786Z,99025.84
2023-08-03T23:08:10.658Z,99037.22
2023-08-03T23:13:02.359Z,99035.38
2023-08-03T23:17:57.190Z,99033.69
2023-08-03T23:22:48.965Z,99035.56
2023-08-03T23:27:40.716Z,99038.03
2023-08-03T23:32:32.599Z,99026.50
2023-08-03T23:37:24.469Z,99030.88
2023-08-03T23:42:16.230Z,99031.88
2023-08-03T23:47:08.024Z,99036.38
2023-08-03T23:51:59.731Z,99035.38
2023-08-03T23:56:51.426Z,99031.88
